Bluejacket, Oklahoma
Current Conditions -  °F | °C
As of 10:15 PM on Sunday 23 Nov 2014 (Local Time) from KGMJ Reporting Station
Light Rain Light Rain  
Wind Chill: 38°   Ceiling: 2100
Heat Index: 45°   Visibility: 7mi
Dew Point: 45°   Wind: 13mph
Humidity: 100%   Direction: 310°NW
Pressure: 29.55"   Gusts: 18mph
Location:  36.8°N, 95.07°W
Report Text: KGMJ 240415Z AUTO 31011G16KT 7SM -RA SCT014 OVC021 07/07 A2955 RMK AO2 P0002
Loading
Personal Weather Stations






























Interactive Weather Map New forecast layout! Learn more

10-Day Weather Forecast

Advertisements
Track Severe Weather on mobile